sensor_id;sensor_type;location;lat;lon;timestamp;P1;durP1;ratioP1;P2;durP2;ratioP2
37459;SDS011;23318;50.966;5.284;2022-11-11T00:00:59;10.18;;;4.68;;
37459;SDS011;23318;50.966;5.284;2022-11-11T00:03:28;8.18;;;4.53;;
37459;SDS011;23318;50.966;5.284;2022-11-11T00:05:58;9.90;;;4.68;;
37459;SDS011;23318;50.966;5.284;2022-11-11T00:08:28;11.90;;;5.25;;
37459;SDS011;23318;50.966;5.284;2022-11-11T00:10:58;10.15;;;5.95;;
37459;SDS011;23318;50.966;5.284;2022-11-11T00:13:28;10.18;;;5.60;;
37459;SDS011;23318;50.966;5.284;2022-11-11T00:15:54;12.93;;;5.72;;
37459;SDS011;23318;50.966;5.284;2022-11-11T00:18:20;12.38;;;5.95;;
37459;SDS011;23318;50.966;5.284;2022-11-11T00:21:04;9.82;;;5.55;;
37459;SDS011;23318;50.966;5.284;2022-11-11T00:23:51;11.80;;;5.65;;
37459;SDS011;23318;50.966;5.284;2022-11-11T00:26:35;16.85;;;6.50;;
37459;SDS011;23318;50.966;5.284;2022-11-11T00:29:01;10.23;;;6.93;;
37459;SDS011;23318;50.966;5.284;2022-11-11T00:31:26;14.48;;;6.32;;
37459;SDS011;23318;50.966;5.284;2022-11-11T00:33:52;11.45;;;6.60;;
37459;SDS011;23318;50.966;5.284;2022-11-11T00:36:18;12.75;;;6.25;;
37459;SDS011;23318;50.966;5.284;2022-11-11T00:38:44;10.52;;;6.60;;
37459;SDS011;23318;50.966;5.284;2022-11-11T00:41:10;14.43;;;7.03;;
37459;SDS011;23318;50.966;5.284;2022-11-11T00:43:46;14.07;;;6.88;;
37459;SDS011;23318;50.966;5.284;2022-11-11T00:46:15;16.08;;;7.07;;
37459;SDS011;23318;50.966;5.284;2022-11-11T00:49:00;15.63;;;6.60;;
37459;SDS011;23318;50.966;5.284;2022-11-11T00:51:44;11.35;;;7.43;;
37459;SDS011;23318;50.966;5.284;2022-11-11T00:54:10;10.73;;;6.57;;
37459;SDS011;23318;50.966;5.284;2022-11-11T00:56:36;16.42;;;10.05;;
37459;SDS011;23318;50.966;5.284;2022-11-11T00:59:05;19.40;;;9.32;;
37459;SDS011;23318;50.966;5.284;2022-11-11T01:01:33;16.77;;;8.00;;
37459;SDS011;23318;50.966;5.284;2022-11-11T01:03:59;13.93;;;7.07;;
37459;SDS011;23318;50.966;5.284;2022-11-11T01:06:26;15.05;;;8.63;;
37459;SDS011;23318;50.966;5.284;2022-11-11T01:08:52;16.00;;;7.88;;
37459;SDS011;23318;50.966;5.284;2022-11-11T01:11:19;17.05;;;7.38;;
37459;SDS011;23318;50.966;5.284;2022-11-11T01:13:46;16.50;;;7.00;;
37459;SDS011;23318;50.966;5.284;2022-11-11T01:16:13;15.15;;;8.05;;
37459;SDS011;23318;50.966;5.284;2022-11-11T01:18:47;12.10;;;7.03;;
37459;SDS011;23318;50.966;5.284;2022-11-11T01:21:14;13.45;;;7.20;;
37459;SDS011;23318;50.966;5.284;2022-11-11T01:23:42;12.43;;;7.35;;
37459;SDS011;23318;50.966;5.284;2022-11-11T01:26:22;13.02;;;7.80;;
37459;SDS011;23318;50.966;5.284;2022-11-11T01:28:50;13.02;;;7.07;;
37459;SDS011;23318;50.966;5.284;2022-11-11T01:31:18;20.38;;;8.30;;
37459;SDS011;23318;50.966;5.284;2022-11-11T01:33:45;21.75;;;8.65;;
37459;SDS011;23318;50.966;5.284;2022-11-11T01:36:12;23.88;;;9.13;;
37459;SDS011;23318;50.966;5.284;2022-11-11T01:38:40;18.02;;;7.80;;
37459;SDS011;23318;50.966;5.284;2022-11-11T01:41:13;15.10;;;7.88;;
37459;SDS011;23318;50.966;5.284;2022-11-11T01:46:44;14.63;;;8.02;;
37459;SDS011;23318;50.966;5.284;2022-11-11T01:49:30;17.42;;;7.95;;
37459;SDS011;23318;50.966;5.284;2022-11-11T01:52:11;17.38;;;7.78;;
37459;SDS011;23318;50.966;5.284;2022-11-11T02:00:00;19.35;;;8.65;;
37459;SDS011;23318;50.966;5.284;2022-11-11T02:02:38;17.63;;;7.75;;
37459;SDS011;23318;50.966;5.284;2022-11-11T02:05:10;14.10;;;7.05;;
37459;SDS011;23318;50.966;5.284;2022-11-11T02:07:57;16.88;;;8.18;;
37459;SDS011;23318;50.966;5.284;2022-11-11T02:10:25;14.45;;;8.57;;
37459;SDS011;23318;50.966;5.284;2022-11-11T02:12:54;19.27;;;9.20;;
37459;SDS011;23318;50.966;5.284;2022-11-11T02:15:38;19.98;;;8.93;;
37459;SDS011;23318;50.966;5.284;2022-11-11T02:18:04;18.40;;;8.13;;
37459;SDS011;23318;50.966;5.284;2022-11-11T02:20:32;13.93;;;7.75;;
37459;SDS011;23318;50.966;5.284;2022-11-11T02:25:50;12.75;;;7.90;;
37459;SDS011;23318;50.966;5.284;2022-11-11T02:28:19;16.88;;;8.13;;
37459;SDS011;23318;50.966;5.284;2022-11-11T02:30:47;16.05;;;8.45;;
37459;SDS011;23318;50.966;5.284;2022-11-11T02:33:12;14.52;;;7.70;;
37459;SDS011;23318;50.966;5.284;2022-11-11T02:35:42;14.90;;;8.38;;
37459;SDS011;23318;50.966;5.284;2022-11-11T02:38:19;17.48;;;8.38;;
37459;SDS011;23318;50.966;5.284;2022-11-11T02:40:44;14.15;;;8.43;;
37459;SDS011;23318;50.966;5.284;2022-11-11T02:43:30;17.08;;;7.85;;
37459;SDS011;23318;50.966;5.284;2022-11-11T02:45:57;15.05;;;7.50;;
37459;SDS011;23318;50.966;5.284;2022-11-11T02:48:23;11.90;;;7.38;;
37459;SDS011;23318;50.966;5.284;2022-11-11T02:50:49;12.95;;;7.00;;
37459;SDS011;23318;50.966;5.284;2022-11-11T02:53:15;12.90;;;6.72;;
37459;SDS011;23318;50.966;5.284;2022-11-11T02:55:41;13.55;;;7.00;;
37459;SDS011;23318;50.966;5.284;2022-11-11T02:58:07;15.63;;;7.47;;
37459;SDS011;23318;50.966;5.284;2022-11-11T03:00:33;19.35;;;7.60;;
37459;SDS011;23318;50.966;5.284;2022-11-11T03:02:58;18.30;;;7.78;;
37459;SDS011;23318;50.966;5.284;2022-11-11T03:05:24;16.02;;;7.10;;
37459;SDS011;23318;50.966;5.284;2022-11-11T03:07:49;13.30;;;7.47;;
37459;SDS011;23318;50.966;5.284;2022-11-11T03:10:15;14.65;;;6.90;;
37459;SDS011;23318;50.966;5.284;2022-11-11T03:12:41;15.65;;;7.20;;
37459;SDS011;23318;50.966;5.284;2022-11-11T03:15:06;12.02;;;6.47;;
37459;SDS011;23318;50.966;5.284;2022-11-11T03:17:33;12.05;;;5.50;;
37459;SDS011;23318;50.966;5.284;2022-11-11T03:20:08;9.95;;;5.95;;
37459;SDS011;23318;50.966;5.284;2022-11-11T03:23:04;14.02;;;6.60;;
37459;SDS011;23318;50.966;5.284;2022-11-11T03:25:52;12.60;;;6.50;;
37459;SDS011;23318;50.966;5.284;2022-11-11T03:28:18;9.90;;;5.75;;
37459;SDS011;23318;50.966;5.284;2022-11-11T03:30:46;12.63;;;6.57;;
37459;SDS011;23318;50.966;5.284;2022-11-11T03:33:13;18.40;;;7.50;;
37459;SDS011;23318;50.966;5.284;2022-11-11T03:35:39;11.32;;;6.40;;
37459;SDS011;23318;50.966;5.284;2022-11-11T03:38:07;14.15;;;6.88;;
37459;SDS011;23318;50.966;5.284;2022-11-11T03:40:49;11.88;;;7.03;;
37459;SDS011;23318;50.966;5.284;2022-11-11T03:43:17;11.13;;;6.90;;
37459;SDS011;23318;50.966;5.284;2022-11-11T03:45:44;12.75;;;6.65;;
37459;SDS011;23318;50.966;5.284;2022-11-11T03:48:11;12.13;;;7.00;;
37459;SDS011;23318;50.966;5.284;2022-11-11T03:50:38;12.63;;;6.85;;
37459;SDS011;23318;50.966;5.284;2022-11-11T03:53:05;11.25;;;7.22;;
37459;SDS011;23318;50.966;5.284;2022-11-11T03:55:31;10.60;;;6.45;;
37459;SDS011;23318;50.966;5.284;2022-11-11T03:57:57;14.02;;;6.30;;
37459;SDS011;23318;50.966;5.284;2022-11-11T04:00:23;11.65;;;6.55;;
37459;SDS011;23318;50.966;5.284;2022-11-11T04:02:50;14.95;;;6.10;;
37459;SDS011;23318;50.966;5.284;2022-11-11T04:05:34;15.20;;;6.18;;
37459;SDS011;23318;50.966;5.284;2022-11-11T04:11:07;17.27;;;7.13;;
37459;SDS011;23318;50.966;5.284;2022-11-11T04:13:36;13.45;;;6.55;;
37459;SDS011;23318;50.966;5.284;2022-11-11T04:16:22;15.73;;;5.85;;
37459;SDS011;23318;50.966;5.284;2022-11-11T04:18:47;10.63;;;6.80;;
37459;SDS011;23318;50.966;5.284;2022-11-11T04:21:31;11.65;;;5.82;;
37459;SDS011;23318;50.966;5.284;2022-11-11T04:26:55;13.98;;;5.88;;
37459;SDS011;23318;50.966;5.284;2022-11-11T04:29:22;9.60;;;6.00;;
37459;SDS011;23318;50.966;5.284;2022-11-11T04:31:54;10.95;;;6.45;;
37459;SDS011;23318;50.966;5.284;2022-11-11T04:34:39;10.90;;;6.30;;
37459;SDS011;23318;50.966;5.284;2022-11-11T04:37:05;13.43;;;6.75;;
37459;SDS011;23318;50.966;5.284;2022-11-11T04:39:30;9.20;;;6.25;;
37459;SDS011;23318;50.966;5.284;2022-11-11T04:42:15;16.50;;;7.07;;
37459;SDS011;23318;50.966;5.284;2022-11-11T04:44:41;12.35;;;6.78;;
37459;SDS011;23318;50.966;5.284;2022-11-11T04:49:50;11.63;;;6.85;;
37459;SDS011;23318;50.966;5.284;2022-11-11T04:52:16;13.25;;;7.35;;
37459;SDS011;23318;50.966;5.284;2022-11-11T04:54:51;12.68;;;6.20;;
37459;SDS011;23318;50.966;5.284;2022-11-11T04:57:43;12.73;;;6.95;;
37459;SDS011;23318;50.966;5.284;2022-11-11T05:00:13;10.32;;;5.82;;
37459;SDS011;23318;50.966;5.284;2022-11-11T05:02:42;10.85;;;6.43;;
37459;SDS011;23318;50.966;5.284;2022-11-11T05:05:27;12.13;;;6.40;;
37459;SDS011;23318;50.966;5.284;2022-11-11T05:08:14;12.10;;;6.80;;
37459;SDS011;23318;50.966;5.284;2022-11-11T05:10:58;14.75;;;6.60;;
37459;SDS011;23318;50.966;5.284;2022-11-11T05:13:24;11.35;;;6.35;;
37459;SDS011;23318;50.966;5.284;2022-11-11T05:16:24;15.23;;;6.82;;
37459;SDS011;23318;50.966;5.284;2022-11-11T05:19:12;12.77;;;6.55;;
37459;SDS011;23318;50.966;5.284;2022-11-11T05:22:06;15.25;;;6.45;;
37459;SDS011;23318;50.966;5.284;2022-11-11T05:24:41;10.37;;;6.60;;
37459;SDS011;23318;50.966;5.284;2022-11-11T05:27:25;10.02;;;6.03;;
37459;SDS011;23318;50.966;5.284;2022-11-11T05:29:51;10.40;;;6.38;;
37459;SDS011;23318;50.966;5.284;2022-11-11T05:32:17;12.25;;;7.15;;
37459;SDS011;23318;50.966;5.284;2022-11-11T05:34:44;11.82;;;6.80;;
37459;SDS011;23318;50.966;5.284;2022-11-11T05:37:10;13.35;;;7.03;;
37459;SDS011;23318;50.966;5.284;2022-11-11T05:39:36;11.35;;;6.72;;
37459;SDS011;23318;50.966;5.284;2022-11-11T05:42:01;12.35;;;6.55;;
37459;SDS011;23318;50.966;5.284;2022-11-11T05:44:27;13.05;;;6.00;;
37459;SDS011;23318;50.966;5.284;2022-11-11T05:46:53;13.15;;;6.45;;
37459;SDS011;23318;50.966;5.284;2022-11-11T05:49:18;11.60;;;6.38;;
37459;SDS011;23318;50.966;5.284;2022-11-11T05:51:44;12.77;;;7.18;;
37459;SDS011;23318;50.966;5.284;2022-11-11T05:54:11;13.05;;;6.40;;
37459;SDS011;23318;50.966;5.284;2022-11-11T05:56:38;10.85;;;6.30;;
37459;SDS011;23318;50.966;5.284;2022-11-11T05:59:04;13.57;;;6.60;;
37459;SDS011;23318;50.966;5.284;2022-11-11T06:01:31;11.13;;;6.50;;
37459;SDS011;23318;50.966;5.284;2022-11-11T06:03:57;11.30;;;7.43;;
37459;SDS011;23318;50.966;5.284;2022-11-11T06:06:23;8.68;;;5.80;;
37459;SDS011;23318;50.966;5.284;2022-11-11T06:08:49;10.13;;;6.57;;
37459;SDS011;23318;50.966;5.284;2022-11-11T06:11:14;11.70;;;6.25;;
37459;SDS011;23318;50.966;5.284;2022-11-11T06:13:40;12.70;;;6.03;;
37459;SDS011;23318;50.966;5.284;2022-11-11T06:16:06;16.05;;;7.07;;
37459;SDS011;23318;50.966;5.284;2022-11-11T06:18:32;10.98;;;6.43;;
37459;SDS011;23318;50.966;5.284;2022-11-11T06:20:58;10.25;;;6.38;;
37459;SDS011;23318;50.966;5.284;2022-11-11T06:23:24;12.20;;;6.55;;
37459;SDS011;23318;50.966;5.284;2022-11-11T06:25:51;14.27;;;7.00;;
37459;SDS011;23318;50.966;5.284;2022-11-11T06:28:36;11.68;;;6.00;;
37459;SDS011;23318;50.966;5.284;2022-11-11T06:31:02;13.73;;;7.22;;
37459;SDS011;23318;50.966;5.284;2022-11-11T06:33:29;13.30;;;6.80;;
37459;SDS011;23318;50.966;5.284;2022-11-11T06:35:54;10.27;;;6.50;;
37459;SDS011;23318;50.966;5.284;2022-11-11T06:38:20;9.98;;;6.03;;
37459;SDS011;23318;50.966;5.284;2022-11-11T06:40:46;10.27;;;6.43;;
37459;SDS011;23318;50.966;5.284;2022-11-11T06:43:12;17.67;;;7.13;;
37459;SDS011;23318;50.966;5.284;2022-11-11T06:45:38;11.93;;;6.53;;
37459;SDS011;23318;50.966;5.284;2022-11-11T06:48:04;12.95;;;6.28;;
37459;SDS011;23318;50.966;5.284;2022-11-11T06:50:33;16.42;;;6.78;;
37459;SDS011;23318;50.966;5.284;2022-11-11T06:53:05;16.17;;;6.03;;
37459;SDS011;23318;50.966;5.284;2022-11-11T06:55:35;11.27;;;6.20;;
37459;SDS011;23318;50.966;5.284;2022-11-11T07:00:56;13.30;;;6.45;;
37459;SDS011;23318;50.966;5.284;2022-11-11T07:03:22;13.52;;;6.40;;
37459;SDS011;23318;50.966;5.284;2022-11-11T07:05:47;9.73;;;5.97;;
37459;SDS011;23318;50.966;5.284;2022-11-11T07:08:14;14.68;;;6.47;;
37459;SDS011;23318;50.966;5.284;2022-11-11T07:10:45;14.23;;;6.43;;
37459;SDS011;23318;50.966;5.284;2022-11-11T07:13:12;18.20;;;6.43;;
37459;SDS011;23318;50.966;5.284;2022-11-11T07:15:39;13.00;;;5.82;;
37459;SDS011;23318;50.966;5.284;2022-11-11T07:18:05;12.75;;;5.55;;
37459;SDS011;23318;50.966;5.284;2022-11-11T07:20:31;14.38;;;5.85;;
37459;SDS011;23318;50.966;5.284;2022-11-11T07:22:57;10.35;;;5.70;;
37459;SDS011;23318;50.966;5.284;2022-11-11T07:25:22;15.40;;;6.47;;
37459;SDS011;23318;50.966;5.284;2022-11-11T07:27:48;12.82;;;7.07;;
37459;SDS011;23318;50.966;5.284;2022-11-11T07:30:14;13.60;;;7.15;;
37459;SDS011;23318;50.966;5.284;2022-11-11T07:32:43;12.82;;;6.38;;
37459;SDS011;23318;50.966;5.284;2022-11-11T07:35:10;17.25;;;9.05;;
37459;SDS011;23318;50.966;5.284;2022-11-11T07:37:38;19.02;;;8.52;;
37459;SDS011;23318;50.966;5.284;2022-11-11T07:40:04;15.93;;;8.45;;
37459;SDS011;23318;50.966;5.284;2022-11-11T07:42:31;17.17;;;9.38;;
37459;SDS011;23318;50.966;5.284;2022-11-11T07:45:00;21.15;;;9.25;;
37459;SDS011;23318;50.966;5.284;2022-11-11T07:47:26;14.88;;;9.52;;
37459;SDS011;23318;50.966;5.284;2022-11-11T07:49:52;20.35;;;10.35;;
37459;SDS011;23318;50.966;5.284;2022-11-11T07:52:17;19.65;;;8.63;;
37459;SDS011;23318;50.966;5.284;2022-11-11T07:54:43;18.58;;;8.98;;
37459;SDS011;23318;50.966;5.284;2022-11-11T07:57:08;19.65;;;9.48;;
37459;SDS011;23318;50.966;5.284;2022-11-11T07:59:34;22.25;;;12.07;;
37459;SDS011;23318;50.966;5.284;2022-11-11T08:02:00;16.83;;;10.40;;
37459;SDS011;23318;50.966;5.284;2022-11-11T08:04:25;18.17;;;8.85;;
37459;SDS011;23318;50.966;5.284;2022-11-11T08:06:51;17.98;;;7.90;;
37459;SDS011;23318;50.966;5.284;2022-11-11T08:09:16;12.68;;;7.28;;
37459;SDS011;23318;50.966;5.284;2022-11-11T08:11:42;17.52;;;7.93;;
37459;SDS011;23318;50.966;5.284;2022-11-11T08:14:26;15.38;;;8.27;;
37459;SDS011;23318;50.966;5.284;2022-11-11T08:16:52;13.65;;;7.57;;
37459;SDS011;23318;50.966;5.284;2022-11-11T08:19:17;11.68;;;6.95;;
37459;SDS011;23318;50.966;5.284;2022-11-11T08:21:43;12.40;;;6.07;;
37459;SDS011;23318;50.966;5.284;2022-11-11T08:24:09;11.25;;;5.32;;
37459;SDS011;23318;50.966;5.284;2022-11-11T08:26:35;10.98;;;5.75;;
37459;SDS011;23318;50.966;5.284;2022-11-11T08:29:01;10.48;;;5.72;;
37459;SDS011;23318;50.966;5.284;2022-11-11T08:31:26;12.07;;;6.38;;
37459;SDS011;23318;50.966;5.284;2022-11-11T08:33:52;13.48;;;6.55;;
37459;SDS011;23318;50.966;5.284;2022-11-11T08:36:18;9.45;;;6.22;;
37459;SDS011;23318;50.966;5.284;2022-11-11T08:38:43;9.13;;;5.78;;
37459;SDS011;23318;50.966;5.284;2022-11-11T08:41:09;12.15;;;7.68;;
37459;SDS011;23318;50.966;5.284;2022-11-11T08:43:35;13.25;;;8.00;;
37459;SDS011;23318;50.966;5.284;2022-11-11T08:46:01;14.90;;;6.85;;
37459;SDS011;23318;50.966;5.284;2022-11-11T08:48:31;9.77;;;6.38;;
37459;SDS011;23318;50.966;5.284;2022-11-11T08:50:57;11.18;;;6.95;;
37459;SDS011;23318;50.966;5.284;2022-11-11T08:53:23;12.13;;;6.65;;
37459;SDS011;23318;50.966;5.284;2022-11-11T08:55:50;8.05;;;6.22;;
37459;SDS011;23318;50.966;5.284;2022-11-11T08:58:16;12.60;;;5.93;;
37459;SDS011;23318;50.966;5.284;2022-11-11T09:00:41;10.52;;;5.60;;
37459;SDS011;23318;50.966;5.284;2022-11-11T09:03:09;11.25;;;6.07;;
37459;SDS011;23318;50.966;5.284;2022-11-11T09:05:39;7.55;;;4.85;;
37459;SDS011;23318;50.966;5.284;2022-11-11T09:08:06;8.75;;;4.95;;
37459;SDS011;23318;50.966;5.284;2022-11-11T09:10:33;5.90;;;4.18;;
37459;SDS011;23318;50.966;5.284;2022-11-11T09:12:59;7.85;;;3.90;;
37459;SDS011;23318;50.966;5.284;2022-11-11T09:15:26;8.70;;;4.03;;
37459;SDS011;23318;50.966;5.284;2022-11-11T09:17:52;5.72;;;3.08;;
37459;SDS011;23318;50.966;5.284;2022-11-11T09:20:18;6.43;;;3.20;;
37459;SDS011;23318;50.966;5.284;2022-11-11T09:22:45;5.68;;;2.50;;
37459;SDS011;23318;50.966;5.284;2022-11-11T09:25:12;7.75;;;2.40;;
37459;SDS011;23318;50.966;5.284;2022-11-11T09:27:39;4.72;;;2.45;;
37459;SDS011;23318;50.966;5.284;2022-11-11T09:30:06;3.38;;;2.13;;
37459;SDS011;23318;50.966;5.284;2022-11-11T09:32:33;5.80;;;2.80;;
37459;SDS011;23318;50.966;5.284;2022-11-11T09:34:59;4.47;;;2.53;;
37459;SDS011;23318;50.966;5.284;2022-11-11T09:37:25;8.88;;;3.58;;
37459;SDS011;23318;50.966;5.284;2022-11-11T09:39:51;10.25;;;4.38;;
37459;SDS011;23318;50.966;5.284;2022-11-11T09:45:25;7.97;;;3.33;;
37459;SDS011;23318;50.966;5.284;2022-11-11T09:48:25;7.35;;;2.92;;
37459;SDS011;23318;50.966;5.284;2022-11-11T09:50:55;6.80;;;2.90;;
37459;SDS011;23318;50.966;5.284;2022-11-11T09:53:26;9.00;;;2.38;;
37459;SDS011;23318;50.966;5.284;2022-11-11T09:56:11;4.05;;;1.88;;
37459;SDS011;23318;50.966;5.284;2022-11-11T09:58:43;3.35;;;1.92;;
37459;SDS011;23318;50.966;5.284;2022-11-11T10:01:13;6.53;;;1.88;;
37459;SDS011;23318;50.966;5.284;2022-11-11T10:06:19;4.45;;;1.73;;
37459;SDS011;23318;50.966;5.284;2022-11-11T10:08:55;4.97;;;1.50;;
37459;SDS011;23318;50.966;5.284;2022-11-11T10:14:15;5.90;;;1.75;;
37459;SDS011;23318;50.966;5.284;2022-11-11T10:19:29;4.55;;;1.33;;
37459;SDS011;23318;50.966;5.284;2022-11-11T10:21:59;4.53;;;1.70;;
37459;SDS011;23318;50.966;5.284;2022-11-11T10:24:44;4.28;;;1.40;;
37459;SDS011;23318;50.966;5.284;2022-11-11T10:27:32;2.75;;;1.20;;
37459;SDS011;23318;50.966;5.284;2022-11-11T10:29:58;3.25;;;1.05;;
37459;SDS011;23318;50.966;5.284;2022-11-11T10:32:32;2.33;;;0.98;;
37459;SDS011;23318;50.966;5.284;2022-11-11T10:35:04;3.60;;;1.25;;
37459;SDS011;23318;50.966;5.284;2022-11-11T10:37:42;4.38;;;1.42;;
37459;SDS011;23318;50.966;5.284;2022-11-11T10:42:46;6.07;;;1.45;;
37459;SDS011;23318;50.966;5.284;2022-11-11T10:45:14;3.97;;;1.10;;
37459;SDS011;23318;50.966;5.284;2022-11-11T10:50:27;4.07;;;1.10;;
37459;SDS011;23318;50.966;5.284;2022-11-11T11:01:24;2.53;;;1.30;;
37459;SDS011;23318;50.966;5.284;2022-11-11T11:04:10;3.35;;;1.60;;
37459;SDS011;23318;50.966;5.284;2022-11-11T11:06:53;1.85;;;0.90;;
37459;SDS011;23318;50.966;5.284;2022-11-11T11:12:03;3.85;;;1.10;;
37459;SDS011;23318;50.966;5.284;2022-11-11T11:14:36;1.80;;;0.93;;
37459;SDS011;23318;50.966;5.284;2022-11-11T11:17:08;2.50;;;0.80;;
37459;SDS011;23318;50.966;5.284;2022-11-11T11:19:39;2.45;;;1.00;;
37459;SDS011;23318;50.966;5.284;2022-11-11T11:22:05;2.70;;;0.70;;
37459;SDS011;23318;50.966;5.284;2022-11-11T11:24:31;2.33;;;0.95;;
37459;SDS011;23318;50.966;5.284;2022-11-11T11:27:03;2.35;;;0.95;;
37459;SDS011;23318;50.966;5.284;2022-11-11T11:29:35;2.55;;;0.80;;
37459;SDS011;23318;50.966;5.284;2022-11-11T11:32:15;3.25;;;0.90;;
37459;SDS011;23318;50.966;5.284;2022-11-11T11:34:45;1.33;;;0.70;;
37459;SDS011;23318;50.966;5.284;2022-11-11T11:37:11;1.73;;;1.00;;
37459;SDS011;23318;50.966;5.284;2022-11-11T11:39:37;2.42;;;0.88;;
37459;SDS011;23318;50.966;5.284;2022-11-11T11:42:04;4.75;;;0.95;;
37459;SDS011;23318;50.966;5.284;2022-11-11T11:44:35;4.45;;;1.02;;
37459;SDS011;23318;50.966;5.284;2022-11-11T11:55:17;1.27;;;0.80;;
37459;SDS011;23318;50.966;5.284;2022-11-11T12:00:50;1.67;;;0.70;;
37459;SDS011;23318;50.966;5.284;2022-11-11T12:04:23;2.92;;;1.30;;
37459;SDS011;23318;50.966;5.284;2022-11-11T12:06:26;2.40;;;0.90;;
37459;SDS011;23318;50.966;5.284;2022-11-11T12:09:06;3.60;;;1.20;;
37459;SDS011;23318;50.966;5.284;2022-11-11T12:11:48;2.92;;;0.98;;
37459;SDS011;23318;50.966;5.284;2022-11-11T12:25:58;4.93;;;1.15;;
37459;SDS011;23318;50.966;5.284;2022-11-11T12:34:09;2.20;;;0.93;;
37459;SDS011;23318;50.966;5.284;2022-11-11T12:37:23;1.35;;;0.80;;
37459;SDS011;23318;50.966;5.284;2022-11-11T12:48:18;3.15;;;1.00;;
37459;SDS011;23318;50.966;5.284;2022-11-11T12:54:00;3.40;;;1.00;;
37459;SDS011;23318;50.966;5.284;2022-11-11T12:56:30;3.97;;;1.17;;
37459;SDS011;23318;50.966;5.284;2022-11-11T12:59:14;5.88;;;1.05;;
37459;SDS011;23318;50.966;5.284;2022-11-11T13:05:13;2.03;;;1.38;;
37459;SDS011;23318;50.966;5.284;2022-11-11T13:11:01;3.85;;;1.88;;
37459;SDS011;23318;50.966;5.284;2022-11-11T13:13:16;4.32;;;1.30;;
37459;SDS011;23318;50.966;5.284;2022-11-11T13:16:06;2.70;;;1.25;;
37459;SDS011;23318;50.966;5.284;2022-11-11T13:21:54;1.95;;;1.00;;
37459;SDS011;23318;50.966;5.284;2022-11-11T13:24:30;5.32;;;1.27;;
37459;SDS011;23318;50.966;5.284;2022-11-11T13:27:02;2.72;;;1.20;;
37459;SDS011;23318;50.966;5.284;2022-11-11T13:32:13;3.35;;;1.75;;
37459;SDS011;23318;50.966;5.284;2022-11-11T13:34:43;6.90;;;2.55;;
37459;SDS011;23318;50.966;5.284;2022-11-11T13:37:17;5.47;;;2.53;;
37459;SDS011;23318;50.966;5.284;2022-11-11T13:39:52;4.65;;;1.65;;
37459;SDS011;23318;50.966;5.284;2022-11-11T13:42:36;1.95;;;1.00;;
37459;SDS011;23318;50.966;5.284;2022-11-11T13:45:05;2.78;;;1.33;;
37459;SDS011;23318;50.966;5.284;2022-11-11T13:47:33;5.88;;;1.10;;
37459;SDS011;23318;50.966;5.284;2022-11-11T13:50:25;2.88;;;1.10;;
37459;SDS011;23318;50.966;5.284;2022-11-11T13:52:58;2.03;;;1.00;;
37459;SDS011;23318;50.966;5.284;2022-11-11T13:58:04;2.47;;;0.90;;
37459;SDS011;23318;50.966;5.284;2022-11-11T14:00:36;2.65;;;1.17;;
37459;SDS011;23318;50.966;5.284;2022-11-11T14:05:44;2.63;;;1.30;;
37459;SDS011;23318;50.966;5.284;2022-11-11T14:08:41;3.22;;;1.05;;
37459;SDS011;23318;50.966;5.284;2022-11-11T14:11:32;0.80;;;0.60;;
37459;SDS011;23318;50.966;5.284;2022-11-11T14:17:12;4.55;;;0.80;;
37459;SDS011;23318;50.966;5.284;2022-11-11T14:19:39;2.83;;;1.20;;
37459;SDS011;23318;50.966;5.284;2022-11-11T14:25:42;3.13;;;1.10;;
37459;SDS011;23318;50.966;5.284;2022-11-11T14:27:44;2.85;;;1.08;;
37459;SDS011;23318;50.966;5.284;2022-11-11T14:30:11;5.22;;;1.30;;
37459;SDS011;23318;50.966;5.284;2022-11-11T14:33:00;4.70;;;1.40;;
37459;SDS011;23318;50.966;5.284;2022-11-11T14:38:24;3.15;;;2.05;;
37459;SDS011;23318;50.966;5.284;2022-11-11T14:47:50;10.05;;;6.68;;
37459;SDS011;23318;50.966;5.284;2022-11-11T14:50:39;4.43;;;2.60;;
37459;SDS011;23318;50.966;5.284;2022-11-11T14:52:53;4.45;;;2.70;;
37459;SDS011;23318;50.966;5.284;2022-11-11T14:55:35;7.90;;;3.75;;
37459;SDS011;23318;50.966;5.284;2022-11-11T15:00:33;16.45;;;10.15;;
37459;SDS011;23318;50.966;5.284;2022-11-11T15:03:28;55.50;;;29.88;;
37459;SDS011;23318;50.966;5.284;2022-11-11T15:06:02;121.68;;;58.22;;
37459;SDS011;23318;50.966;5.284;2022-11-11T15:11:32;113.72;;;50.83;;
37459;SDS011;23318;50.966;5.284;2022-11-11T15:30:15;6.47;;;2.40;;
37459;SDS011;23318;50.966;5.284;2022-11-11T15:32:52;5.97;;;2.97;;
37459;SDS011;23318;50.966;5.284;2022-11-11T15:35:59;8.65;;;1.85;;
37459;SDS011;23318;50.966;5.284;2022-11-11T15:38:34;7.20;;;2.63;;
37459;SDS011;23318;50.966;5.284;2022-11-11T15:43:35;4.07;;;1.83;;
37459;SDS011;23318;50.966;5.284;2022-11-11T15:46:03;5.00;;;1.70;;
37459;SDS011;23318;50.966;5.284;2022-11-11T15:51:24;2.88;;;1.45;;
37459;SDS011;23318;50.966;5.284;2022-11-11T15:56:35;4.32;;;1.88;;
37459;SDS011;23318;50.966;5.284;2022-11-11T15:59:21;5.88;;;1.95;;
37459;SDS011;23318;50.966;5.284;2022-11-11T16:01:48;9.30;;;2.00;;
37459;SDS011;23318;50.966;5.284;2022-11-11T16:04:16;8.20;;;1.90;;
37459;SDS011;23318;50.966;5.284;2022-11-11T16:06:44;8.68;;;1.67;;
37459;SDS011;23318;50.966;5.284;2022-11-11T16:14:31;3.55;;;1.60;;
37459;SDS011;23318;50.966;5.284;2022-11-11T16:19:39;4.40;;;2.00;;
37459;SDS011;23318;50.966;5.284;2022-11-11T16:24:42;8.40;;;2.25;;
37459;SDS011;23318;50.966;5.284;2022-11-11T16:53:01;5.80;;;1.98;;
37459;SDS011;23318;50.966;5.284;2022-11-11T16:58:13;9.65;;;2.35;;
37459;SDS011;23318;50.966;5.284;2022-11-11T17:00:43;5.82;;;2.20;;
37459;SDS011;23318;50.966;5.284;2022-11-11T17:03:10;4.82;;;2.35;;
37459;SDS011;23318;50.966;5.284;2022-11-11T17:05:48;5.45;;;1.98;;
37459;SDS011;23318;50.966;5.284;2022-11-11T17:08:27;6.45;;;2.70;;
37459;SDS011;23318;50.966;5.284;2022-11-11T17:11:03;6.22;;;2.17;;
37459;SDS011;23318;50.966;5.284;2022-11-11T17:13:29;5.50;;;2.47;;
37459;SDS011;23318;50.966;5.284;2022-11-11T17:15:58;5.70;;;3.45;;
37459;SDS011;23318;50.966;5.284;2022-11-11T17:18:29;20.30;;;11.98;;
37459;SDS011;23318;50.966;5.284;2022-11-11T17:20:57;15.50;;;3.00;;
37459;SDS011;23318;50.966;5.284;2022-11-11T17:23:23;13.27;;;3.60;;
37459;SDS011;23318;50.966;5.284;2022-11-11T17:25:52;4.18;;;2.13;;
37459;SDS011;23318;50.966;5.284;2022-11-11T17:28:20;9.90;;;2.38;;
37459;SDS011;23318;50.966;5.284;2022-11-11T17:30:46;3.03;;;2.15;;
37459;SDS011;23318;50.966;5.284;2022-11-11T17:33:12;8.80;;;2.35;;
37459;SDS011;23318;50.966;5.284;2022-11-11T17:35:37;7.05;;;3.00;;
37459;SDS011;23318;50.966;5.284;2022-11-11T17:38:03;6.32;;;2.72;;
37459;SDS011;23318;50.966;5.284;2022-11-11T17:40:29;5.00;;;2.70;;
37459;SDS011;23318;50.966;5.284;2022-11-11T17:42:55;9.40;;;2.70;;
37459;SDS011;23318;50.966;5.284;2022-11-11T17:45:21;3.78;;;2.13;;
37459;SDS011;23318;50.966;5.284;2022-11-11T17:47:46;4.43;;;2.13;;
37459;SDS011;23318;50.966;5.284;2022-11-11T17:50:12;4.88;;;1.98;;
37459;SDS011;23318;50.966;5.284;2022-11-11T17:52:38;4.97;;;1.95;;
37459;SDS011;23318;50.966;5.284;2022-11-11T17:55:03;3.38;;;1.95;;
37459;SDS011;23318;50.966;5.284;2022-11-11T17:57:30;6.68;;;2.50;;
37459;SDS011;23318;50.966;5.284;2022-11-11T17:59:56;7.60;;;2.40;;
37459;SDS011;23318;50.966;5.284;2022-11-11T18:04:57;8.05;;;3.22;;
37459;SDS011;23318;50.966;5.284;2022-11-11T18:07:22;6.55;;;2.55;;
37459;SDS011;23318;50.966;5.284;2022-11-11T18:09:48;7.28;;;2.45;;
37459;SDS011;23318;50.966;5.284;2022-11-11T18:12:14;4.20;;;2.40;;
37459;SDS011;23318;50.966;5.284;2022-11-11T18:14:40;7.93;;;2.10;;
37459;SDS011;23318;50.966;5.284;2022-11-11T18:17:05;3.72;;;1.98;;